首页
METAR-TAF:

METAR-TAF

机场 :

Bemidji, 明尼蘇達州, 美国

纬度: 47-30N, 经度: 094-56W, 海拔: 423米

当前天气观测

该预报发布于30分钟前的21:55 UTC
风速7节,风向西南
温度 24°C
湿度 41%
气压 1017 hPa
能見度: 16.1公里
天空无云

METAR: KBJI 142155Z AUTO 23007KT 10SM CLR 24/10 A3002 RMK AO2 T02430101

时间: 17:25 (22:25 UTC)

预报

该预报发布于4小时和44分钟前的17:41 UTC
预报有效从14日的 18点(UTC)到 15日的 18点(UTC)
风速7节,风向西转西南
能見度: 10公里
散云层高于5000英尺
从 15日的 0100点(UTC)
风速3节,风向多变
能見度: 10公里
散云层高于23000英尺
从 15日的 1200点(UTC)
风速7节,风向南转南东
能見度: 10公里
阴天层高于10000英尺
从 15日的 1400点(UTC)
风速12节,风向南转南东,有时为20节阵风
能見度: 10公里
阴天层高于10000英尺

TAF: KBJI 141741Z 1418/1518 25007KT P6SM SCT050 FM150100 VRB03KT P6SM SCT230 FM151200 15007KT P6SM OVC100 FM151400 16012G20KT P6SM OVC100

超过4000个机场的气象观测和天气预报(METAR&TAF报告)。

可查询的气象台以黄色和红色小点在地图上表示。

将鼠标移到小点上方,可查看气象台名称。

然后点击查看天气观测和预报。

如需切换地图:点击带黑十字的绿色按钮放大地图;点击带横线的绿色按钮缩小地图;或者点击绿色箭头查看邻近地区的地图。


METAR-TAF: